Marui Maru — JD2662 — position and weather

sailwx.info

Track history (hours):
 
Tides and Currents Weather Stations Pressure Air Temp Water Temp Dewpoint Dewpoint Depression Visibility Wind Speed Wind Dir Waves Ship Positions

Marui Maru

Last reported at 2018-Jun-09 04:13 UTC. Time now 2018-Jun-18 17:12 UTC.
Position N 34°38' E 134°58'.
Warning: this ship's position is 9 days out of date.

Length 74 m.

Type: Cargo ship. MMSI: 431000566.

Date/timePositionNaut miles runAvg speedWind from/ knotsBaromVisibWave heightAir tempDewpointWater temp
2018-Jun-09 04:13N 34°38' E 134°58'4 9.9
2018-Jun-09 03:47N 34°36' E 135°03'310.3
2018-Jun-09 03:30N 34°36' E 135°07'612.3
2018-Jun-09 03:00N 34°37' E 135°14'611.7
2018-Jun-09 02:29N 34°37' E 135°21'  
2018-Jun-06 08:43N 34°39' E 135°26'3 9.2
2018-Jun-06 08:25N 34°38' E 135°23'2 0.3
2018-Jun-06 02:49N 34°37' E 135°22'3 8.0
2018-Jun-06 02:28N 34°35' E 135°20'711.1
2018-Jun-06 01:52N 34°30' E 135°14'411.0
2018-Jun-06 01:29N 34°27' E 135°10'510.7
2018-Jun-06 01:00N 34°24' E 135°06'510.8
2018-Jun-06 00:30N 34°20' E 135°01'5 9.4
2018-Jun-06 00:00N 34°15' E 134°59'5 9.9
2018-Jun-05 23:29N 34°10' E 134°58'511.4
2018-Jun-05 23:00N 34°05' E 134°58'711.5
2018-Jun-05 22:23N 33°58' E 134°60'511.0
2018-Jun-05 21:57N 33°53' E 135°01'  
2018-May-31 01:03N 35°04' E 139°44'111.7
2018-May-31 00:58N 35°05' E 139°44'612.0
2018-May-31 00:30N 35°10' E 139°46'612.7
2018-May-31 00:00N 35°17' E 139°45'612.1
2018-May-30 23:29N 35°22' E 139°42'2 2.3
2018-May-30 22:30N 35°24' E 139°45'0 0.0
2018-May-30 20:48N 35°24' E 139°45'  
Track history (hours):
 
Tides and Currents Weather Stations Pressure Air Temp Water Temp Dewpoint Dewpoint Depression Visibility Wind Speed Wind Dir Waves Ship Positions

Marui Maru

Last reported at 2018-Jun-09 04:13 UTC. Time now 2018-Jun-18 17:12 UTC.
Position N 34°38' E 134°58'.
Warning: this ship's position is 9 days out of date.

Length 74 m.

Type: Cargo ship. MMSI: 431000566.

Date/timePositionNaut miles runAvg speedWind from/ knotsBaromVisibWave heightAir tempDewpointWater temp
2018-Jun-09 04:13N 34°38' E 134°58'4 9.9
2018-Jun-09 03:47N 34°36' E 135°03'310.3
2018-Jun-09 03:30N 34°36' E 135°07'612.3
2018-Jun-09 03:00N 34°37' E 135°14'611.7
2018-Jun-09 02:29N 34°37' E 135°21'  
2018-Jun-06 08:43N 34°39' E 135°26'3 9.2
2018-Jun-06 08:25N 34°38' E 135°23'2 0.3
2018-Jun-06 02:49N 34°37' E 135°22'3 8.0
2018-Jun-06 02:28N 34°35' E 135°20'711.1
2018-Jun-06 01:52N 34°30' E 135°14'411.0
2018-Jun-06 01:29N 34°27' E 135°10'510.7
2018-Jun-06 01:00N 34°24' E 135°06'510.8
2018-Jun-06 00:30N 34°20' E 135°01'5 9.4
2018-Jun-06 00:00N 34°15' E 134°59'5 9.9
2018-Jun-05 23:29N 34°10' E 134°58'511.4
2018-Jun-05 23:00N 34°05' E 134°58'711.5
2018-Jun-05 22:23N 33°58' E 134°60'511.0
2018-Jun-05 21:57N 33°53' E 135°01'  
2018-May-31 01:03N 35°04' E 139°44'111.7
2018-May-31 00:58N 35°05' E 139°44'612.0
2018-May-31 00:30N 35°10' E 139°46'612.7
2018-May-31 00:00N 35°17' E 139°45'612.1
2018-May-30 23:29N 35°22' E 139°42'2 2.3
2018-May-30 22:30N 35°24' E 139°45'0 0.0
2018-May-30 20:48N 35°24' E 139°45'  

Dump ship's entire track history